Time;durP1;ratioP1;P1;durP2;ratioP2;P2;SDS_P1;SDS_P2;PMS_P1;PMS_P2;Temp;Humidity;BMP_temperature;BMP_pressure;BME280_temperature;BME280_humidity;BME280_pressure;Samples;Min_cycle;Max_cycle;Signal;HPM_P1;HPM_P2
2023/01/05 00:07:31;;;;;;;1.70;1.23;;;;;;;9.23;69.86;99473.91;30984784;28;96648;-66
2023/01/05 00:22:37;;;;;;;2.25;1.00;;;;;;;9.15;70.17;99447.41;30982824;28;96739;-70
2023/01/05 00:37:39;;;;;;;1.17;0.80;;;;;;;9.35;69.87;99441.56;30981717;28;97103;-68
2023/01/05 00:52:39;;;;;;;1.50;0.57;;;;;;;9.48;70.07;99437.28;30980035;28;96762;-69
2023/01/05 01:07:40;;;;;;;1.35;0.50;;;;;;;9.67;69.37;99421.81;30978887;28;97650;-67
2023/01/05 01:22:40;;;;;;;1.00;0.30;;;;;;;9.79;68.64;99408.88;30982029;28;96591;-67
2023/01/05 01:37:41;;;;;;;0.30;0.30;;;;;;;10.04;68.02;99417.38;30999052;28;97581;-67
2023/01/05 01:52:44;;;;;;;2.35;0.80;;;;;;;10.24;67.16;99406.16;30997451;28;96529;-68
2023/01/05 02:07:46;;;;;;;;;;;;;;;10.30;66.60;99405.41;30996520;28;96795;-67
2023/01/05 02:22:58;;;;;;;1.67;0.50;;;;;;;10.13;67.12;99394.97;30995094;28;96671;-69
2023/01/05 02:38:09;;;;;;;3.43;0.80;;;;;;;10.04;67.63;99379.31;30991981;28;97424;-67
2023/01/05 02:53:18;;;;;;;4.73;1.00;;;;;;;10.02;67.06;99360.88;30991218;28;97292;-67
2023/01/05 03:08:22;;;;;;;1.63;0.43;;;;;;;9.98;67.28;99388.88;30990594;28;96800;-67
2023/01/05 03:38:46;;;;;;;3.33;1.03;;;;;;;10.01;67.01;99393.81;30987182;28;96559;-67
2023/01/05 03:53:46;;;;;;;5.83;0.63;;;;;;;9.97;66.83;99384.56;30983801;28;97303;-67
2023/01/05 04:08:47;;;;;;;4.10;0.88;;;;;;;9.91;66.96;99412.72;30983220;28;97413;-67
2023/01/05 04:23:47;;;;;;;4.65;1.05;;;;;;;9.74;68.01;99408.59;30982146;28;96772;-69
2023/01/05 04:38:48;;;;;;;3.42;0.80;;;;;;;9.51;69.35;99437.94;30978653;28;96641;-67
2023/01/05 04:53:48;;;;;;;4.03;0.80;;;;;;;9.12;70.40;99415.88;30977666;28;97308;-67
2023/01/05 05:08:48;;;;;;;0.85;0.45;;;;;;;8.81;71.37;99416.78;30974039;28;97692;-68
2023/01/05 05:23:49;;;;;;;0.60;0.32;;;;;;;8.26;71.71;99414.13;30975021;28;97014;-68
2023/01/05 05:38:49;;;;;;;1.88;0.77;;;;;;;8.05;72.76;99425.34;30974095;28;97263;-68
2023/01/05 05:53:51;;;;;;;2.72;0.60;;;;;;;8.03;73.06;99443.25;30970829;28;96734;-67
2023/01/05 06:08:51;;;;;;;4.37;0.60;;;;;;;7.94;73.62;99453.06;30975277;28;96734;-67
2023/01/05 06:23:52;;;;;;;1.77;0.63;;;;;;;7.87;73.96;99451.28;30993011;28;96780;-67
2023/01/05 06:38:52;;;;;;;1.20;0.60;;;;;;;7.94;74.11;99445.13;30986392;28;97241;-64
2023/01/05 06:53:53;;;;;;;3.67;0.82;;;;;;;8.09;74.01;99452.34;30983994;28;96661;-66
2023/01/05 07:08:53;;;;;;;2.88;0.70;;;;;;;8.23;73.84;99453.44;30983269;28;96494;-67
2023/01/05 07:23:53;;;;;;;2.17;1.02;;;;;;;8.36;73.71;99477.59;30982999;28;97179;-64
2023/01/05 07:38:54;;;;;;;3.03;1.27;;;;;;;8.48;74.18;99479.91;30981436;28;97339;-64
2023/01/05 07:53:55;;;;;;;3.45;1.20;;;;;;;8.64;73.90;99480.63;30978331;28;97947;-64
2023/01/05 08:08:56;;;;;;;5.33;1.40;;;;;;;8.80;73.57;99487.69;30978303;28;97379;-65
2023/01/05 08:23:58;;;;;;;3.80;1.30;;;;;;;9.01;73.25;99491.53;30977850;28;98131;-64
2023/01/05 08:39:02;;;;;;;4.80;1.23;;;;;;;9.43;71.70;99506.16;30976523;28;96692;-66
2023/01/05 08:54:03;;;;;;;4.93;1.47;;;;;;;9.62;71.29;99503.97;30974747;28;96769;-66
2023/01/05 09:09:04;;;;;;;3.97;1.02;;;;;;;9.64;70.20;99520.59;30974269;28;96748;-65
2023/01/05 09:24:06;;;;;;;4.00;1.42;;;;;;;9.72;68.78;99517.00;30971184;28;97415;-67
2023/01/05 09:39:06;;;;;;;5.10;1.07;;;;;;;9.71;68.38;99534.00;30972140;28;97371;-67
2023/01/05 09:54:16;;;;;;;8.02;1.60;;;;;;;9.44;69.21;99566.25;30991218;28;97502;-64
2023/01/05 10:09:32;;;;;;;4.23;1.70;;;;;;;9.64;70.08;99555.16;30991593;28;97686;-66
2023/01/05 10:25:07;;;;;;;9.93;2.10;;;;;;;9.95;69.24;99538.22;30988401;28;97295;-66
2023/01/05 10:40:28;;;;;;;4.60;1.37;;;;;;;15.32;65.18;99485.72;30984941;28;97661;-65
2023/01/05 10:55:30;;;;;;;3.37;1.17;;;;;;;11.73;59.80;99605.50;30984128;28;96885;-66
2023/01/05 11:11:04;;;;;;;1.37;0.43;;;;;;;9.21;64.54;99594.69;30984249;28;96984;-67
2023/01/05 11:26:17;;;;;;;2.10;1.17;;;;;;;8.39;67.51;99572.81;30981840;28;97485;-66
2023/01/05 11:41:21;;;;;;;4.20;1.30;;;;;;;7.93;69.19;99604.41;30983157;28;97152;-65
2023/01/05 11:56:22;;;;;;;;;;;;;;;7.86;70.95;99600.75;30980234;28;96734;-67
2023/01/05 12:11:26;;;;;;;1.60;0.60;;;;;;;14.69;65.79;99594.59;30979503;28;96743;-66
2023/01/05 12:26:36;;;;;;;3.00;1.27;;;;;;;10.36;65.81;99619.50;30978323;28;96678;-68
2023/01/05 12:41:49;;;;;;;2.30;1.00;;;;;;;17.13;62.36;99607.50;30977447;28;97386;-67
2023/01/05 12:56:54;;;;;;;4.77;1.37;;;;;;;16.01;51.84;99620.06;30975308;28;97134;-68
2023/01/05 13:12:00;;;;;;;2.77;1.20;;;;;;;16.38;55.27;99612.06;30973116;28;96705;-70
2023/01/05 13:27:01;;;;;;;4.53;1.07;;;;;;;14.70;52.53;99623.06;30970749;28;97440;-68
2023/01/05 13:42:11;;;;;;;2.00;0.73;;;;;;;21.38;42.52;99622.19;30970488;28;97438;-67
2023/01/05 13:57:36;;;;;;;2.23;0.80;;;;;;;16.19;43.63;99636.22;30968627;28;96796;-68
2023/01/05 14:12:48;;;;;;;2.83;1.23;;;;;;;13.29;48.14;99643.63;30963771;28;97528;-67
2023/01/05 14:28:26;;;;;;;3.17;1.13;;;;;;;11.04;53.17;99697.47;30970760;28;97389;-68
2023/01/05 14:43:32;;;;;;;4.40;1.50;;;;;;;10.10;56.15;99712.06;30986057;28;96953;-67
2023/01/05 14:58:35;;;;;;;1.30;0.83;;;;;;;9.29;56.84;99732.84;30983960;28;96739;-67
2023/01/05 15:29:36;;;;;;;2.87;1.30;;;;;;;8.38;56.23;99802.06;30889027;28;97277;-66
2023/01/05 15:44:42;;;;;;;1.43;0.57;;;;;;;8.00;56.56;99807.00;30856557;28;97283;-66
2023/01/05 15:59:47;;;;;;;1.77;0.70;;;;;;;7.90;58.18;99846.09;30858203;28;97019;-66
2023/01/05 16:14:56;;;;;;;2.77;0.93;;;;;;;8.06;58.04;99896.53;30945906;28;96819;-66
2023/01/05 16:30:27;;;;;;;4.40;0.87;;;;;;;8.08;58.09;99915.78;30975695;28;96667;-66
2023/01/05 16:45:32;;;;;;;4.73;1.10;;;;;;;8.06;58.51;99938.97;30974007;28;96842;-72
2023/01/05 17:00:35;;;;;;;3.80;1.03;;;;;;;7.97;59.53;99971.78;30974146;28;96847;-68
2023/01/05 17:15:43;;;;;;;4.47;0.77;;;;;;;7.74;59.70;99996.19;30959146;28;97202;-68
2023/01/05 17:30:44;;;;;;;4.50;1.00;;;;;;;7.72;60.20;100018.53;30955384;28;97498;-68
2023/01/05 17:45:46;;;;;;;2.90;0.87;;;;;;;7.70;60.31;100050.53;30962681;28;96945;-67
2023/01/05 18:00:46;;;;;;;2.83;0.77;;;;;;;7.74;60.29;100078.41;30970790;28;97840;-67
2023/01/05 18:15:49;;;;;;;3.47;0.77;;;;;;;7.71;60.21;100099.91;30988401;28;97873;-67
2023/01/05 18:30:50;;;;;;;1.70;0.50;;;;;;;7.65;60.14;100121.72;30990123;28;96855;-67
2023/01/05 18:45:56;;;;;;;1.98;0.80;;;;;;;7.37;61.26;100145.69;30986126;28;97491;-67
2023/01/05 19:00:56;;;;;;;3.67;1.30;;;;;;;7.02;62.38;100183.53;30986781;28;96600;-67
2023/01/05 19:16:00;;;;;;;1.52;0.77;;;;;;;6.88;62.63;100216.66;30984278;28;97308;-68
2023/01/05 19:31:12;;;;;;;2.27;0.90;;;;;;;6.68;62.28;100245.81;30983086;28;96886;-65
2023/01/05 19:46:14;;;;;;;1.42;0.90;;;;;;;6.49;61.88;100275.81;30982555;28;96686;-66
2023/01/05 20:01:15;;;;;;;2.58;0.70;;;;;;;5.86;62.60;100284.16;30978736;28;97476;-67
2023/01/05 20:16:15;;;;;;;2.38;0.98;;;;;;;5.64;62.87;100306.38;30979816;28;97293;-66
2023/01/05 20:31:24;;;;;;;2.53;1.30;;;;;;;5.85;63.12;100344.13;30978441;28;97353;-67
2023/01/05 20:46:37;;;;;;;3.05;1.00;;;;;;;5.73;63.21;100382.22;30976484;28;96675;-66
2023/01/05 21:01:38;;;;;;;3.03;1.30;;;;;;;5.54;63.16;100409.41;30974661;28;97722;-66
2023/01/05 21:16:42;;;;;;;3.13;1.05;;;;;;;5.28;64.57;100441.53;30974014;28;96988;-67
2023/01/05 21:31:43;;;;;;;5.80;1.20;;;;;;;5.47;64.38;100458.44;30973632;28;97674;-67
2023/01/05 21:46:44;;;;;;;3.00;1.23;;;;;;;5.45;63.87;100484.19;30986887;28;97277;-66
2023/01/05 22:01:44;;;;;;;1.70;0.80;;;;;;;5.30;63.43;100497.69;30992076;28;97637;-67
2023/01/05 22:16:45;;;;;;;0.80;0.70;;;;;;;4.89;62.73;100520.47;30992882;28;96770;-67
2023/01/05 22:31:45;;;;;;;2.05;0.70;;;;;;;4.48;62.75;100543.09;30991170;28;96777;-67
2023/01/05 22:46:46;;;;;;;1.52;0.80;;;;;;;4.24;63.08;100562.56;30990526;28;96823;-67
2023/01/05 23:01:46;;;;;;;1.13;0.88;;;;;;;4.03;63.29;100580.88;30989023;28;96666;-67
2023/01/05 23:16:47;;;;;;;3.67;0.70;;;;;;;4.00;62.68;100597.75;30987526;28;96831;-67
2023/01/05 23:31:47;;;;;;;1.95;0.95;;;;;;;3.59;63.60;100614.09;30985968;28;96829;-66
2023/01/05 23:46:48;;;;;;;1.55;0.93;;;;;;;3.75;63.78;100632.22;30984507;28;97604;-67
